Time;durP1;ratioP1;P1;durP2;ratioP2;P2;SDS_P1;SDS_P2;PMS_P1;PMS_P2;Temp;Humidity;BMP_temperature;BMP_pressure;BME280_temperature;BME280_humidity;BME280_pressure;Samples;Min_cycle;Max_cycle;Signal;HPM_P1;HPM_P2
2022/10/21 00:01:08;;;;;;;27.95;15.50;;;;;;;13.54;100.00;100496.66;5064661;28;20128;-79
2022/10/21 00:03:34;;;;;;;40.25;16.30;;;;;;;13.46;100.00;100486.41;5062855;28;20120;-80
2022/10/21 00:06:00;;;;;;;28.58;15.13;;;;;;;13.37;100.00;100476.31;5059938;28;20017;-79
2022/10/21 00:08:25;;;;;;;36.10;14.98;;;;;;;13.57;100.00;100501.88;5056726;28;20041;-79
2022/10/21 00:10:52;;;;;;;32.25;16.13;;;;;;;13.54;100.00;100499.41;5029413;28;20041;-80
2022/10/21 00:13:18;;;;;;;37.50;16.88;;;;;;;13.50;100.00;100490.59;5054464;28;20033;-77
2022/10/21 00:15:43;;;;;;;30.02;16.42;;;;;;;13.51;100.00;100489.59;5056589;28;20041;-78
2022/10/21 00:18:09;;;;;;;34.20;16.35;;;;;;;13.33;100.00;100473.00;5058481;28;20028;-78
2022/10/21 00:20:34;;;;;;;40.40;16.42;;;;;;;13.34;100.00;100466.47;5025365;28;20113;-79
2022/10/21 00:23:00;;;;;;;28.15;16.60;;;;;;;13.38;100.00;100473.41;5063394;28;20052;-79
2022/10/21 00:25:25;;;;;;;30.30;16.88;;;;;;;13.38;100.00;100483.53;5025466;28;20397;-79
2022/10/21 00:27:51;;;;;;;29.05;16.73;;;;;;;13.32;100.00;100476.75;5040107;28;20554;-79
2022/10/21 00:30:17;;;;;;;36.92;18.15;;;;;;;13.41;100.00;100492.38;5020708;28;20033;-79
2022/10/21 00:32:42;;;;;;;39.63;18.50;;;;;;;13.19;100.00;100460.53;5033714;28;20065;-79
2022/10/21 00:35:08;;;;;;;41.95;18.00;;;;;;;13.38;100.00;100484.41;5045947;28;20501;-79
2022/10/21 00:37:34;;;;;;;39.97;18.35;;;;;;;13.31;100.00;100479.63;5043648;28;20029;-79
2022/10/21 00:39:59;;;;;;;35.17;17.65;;;;;;;13.48;100.00;100492.63;5027940;28;20063;-78
2022/10/21 00:42:33;;;;;;;38.60;18.50;;;;;;;13.49;100.00;100475.09;5032471;28;20045;-79
2022/10/21 00:45:05;;;;;;;33.95;17.98;;;;;;;13.59;100.00;100477.81;5051564;28;20040;-78
2022/10/21 00:47:43;;;;;;;36.83;17.33;;;;;;;13.53;100.00;100467.44;5056218;28;20029;-79
2022/10/21 00:50:28;;;;;;;36.22;18.08;;;;;;;13.72;100.00;100483.84;5061291;28;20395;-79
2022/10/21 00:52:55;;;;;;;41.65;17.00;;;;;;;13.63;100.00;100481.16;5068669;28;20029;-78
2022/10/21 00:55:23;;;;;;;33.10;16.92;;;;;;;13.59;100.00;100461.31;5036021;28;20025;-78
2022/10/21 00:57:52;;;;;;;43.05;18.25;;;;;;;13.62;100.00;100480.25;5068988;28;20035;-78
2022/10/21 01:00:18;;;;;;;33.08;17.10;;;;;;;13.57;100.00;100479.84;5066177;28;20048;-79
2022/10/21 01:02:44;;;;;;;34.15;17.90;;;;;;;13.41;100.00;100453.88;5047236;28;20021;-79
2022/10/21 01:05:11;;;;;;;36.15;18.70;;;;;;;13.54;100.00;100478.28;5059181;28;20046;-79
2022/10/21 01:07:36;;;;;;;40.05;18.65;;;;;;;13.45;100.00;100465.44;5068474;28;20079;-78
2022/10/21 01:10:03;;;;;;;33.40;18.60;;;;;;;13.32;100.00;100445.63;5045653;28;20037;-78
2022/10/21 01:12:37;;;;;;;36.17;18.67;;;;;;;13.34;100.00;100463.72;5061808;28;20036;-78
2022/10/21 01:15:23;;;;;;;42.08;19.13;;;;;;;13.19;100.00;100445.94;5062760;28;20033;-79
2022/10/21 01:18:04;;;;;;;39.58;20.35;;;;;;;13.31;100.00;100452.13;5068839;28;20040;-79
2022/10/21 01:21:07;;;;;;;44.13;19.02;;;;;;;13.23;100.00;100450.09;5052510;28;20067;-79
2022/10/21 01:23:35;;;;;;;41.67;18.97;;;;;;;13.20;100.00;100444.94;5062759;28;20053;-79
2022/10/21 01:26:18;;;;;;;42.38;19.85;;;;;;;13.15;100.00;100431.63;5062687;28;20044;-79
2022/10/21 01:29:00;;;;;;;;;;;;;;;13.08;100.00;100432.38;5044757;28;20048;-79
2022/10/21 01:31:49;;;;;;;42.08;19.90;;;;;;;12.95;100.00;100411.53;5042010;28;19913;-79
2022/10/21 01:34:25;;;;;;;42.67;20.27;;;;;;;12.98;100.00;100426.88;5060091;28;20083;-79
2022/10/21 01:36:59;;;;;;;47.17;21.80;;;;;;;12.91;100.00;100423.88;5059048;28;20036;-79
2022/10/21 01:39:32;;;;;;;52.00;21.00;;;;;;;12.91;100.00;100425.75;5056444;28;20378;-79
2022/10/21 01:42:22;;;;;;;46.40;21.58;;;;;;;12.92;100.00;100419.22;5060302;28;20107;-79
2022/10/21 01:45:01;;;;;;;45.42;21.35;;;;;;;12.89;100.00;100417.66;5041531;28;20087;-79
2022/10/21 01:47:32;;;;;;;41.38;22.02;;;;;;;12.81;100.00;100406.53;5051861;28;20025;-79
2022/10/21 01:50:09;;;;;;;44.13;21.10;;;;;;;12.79;100.00;100403.03;5039815;28;20033;-79
2022/10/21 01:52:36;;;;;;;52.85;22.33;;;;;;;12.76;100.00;100400.63;5033199;28;20039;-79
2022/10/21 01:55:08;;;;;;;57.75;21.80;;;;;;;12.69;100.00;100384.72;5039787;28;20036;-78
2022/10/21 01:57:39;;;;;;;48.25;21.50;;;;;;;12.75;100.00;100390.63;5061585;28;20028;-79
2022/10/21 02:00:06;;;;;;;42.35;21.00;;;;;;;12.69;100.00;100394.81;5062232;28;20024;-79
2022/10/21 02:02:38;;;;;;;54.40;21.60;;;;;;;12.72;100.00;100393.66;5026323;28;20112;-79
2022/10/21 02:05:09;;;;;;;49.05;22.02;;;;;;;12.55;100.00;100363.19;5053338;28;20047;-80
2022/10/21 02:07:35;;;;;;;45.85;21.02;;;;;;;12.48;100.00;100360.16;5046465;28;20029;-79
2022/10/21 02:10:00;;;;;;;48.80;20.42;;;;;;;12.64;100.00;100380.66;5030990;28;20087;-79
2022/10/21 02:12:28;;;;;;;45.13;21.52;;;;;;;12.65;100.00;100386.00;5046890;28;20029;-79
2022/10/21 02:14:57;;;;;;;51.25;21.40;;;;;;;12.52;100.00;100352.50;5063262;28;20029;-79
2022/10/21 02:17:25;;;;;;;45.30;20.73;;;;;;;12.60;100.00;100351.78;5046439;28;20083;-79
2022/10/21 02:19:50;;;;;;;49.38;20.92;;;;;;;12.68;100.00;100357.41;5067089;28;20062;-79
2022/10/21 02:22:21;;;;;;;46.67;20.75;;;;;;;12.66;100.00;100348.44;5029356;28;20049;-79
2022/10/21 02:24:55;;;;;;;40.35;19.85;;;;;;;12.62;100.00;100350.59;5052056;28;20032;-79
2022/10/21 02:27:22;;;;;;;40.40;18.60;;;;;;;12.69;100.00;100357.25;5045460;28;20021;-79
2022/10/21 02:29:50;;;;;;;38.08;18.70;;;;;;;12.68;100.00;100357.41;5047300;28;20035;-78
2022/10/21 02:32:37;;;;;;;41.38;18.90;;;;;;;12.65;100.00;100363.19;5030178;28;20092;-79
2022/10/21 02:35:16;;;;;;;44.33;18.65;;;;;;;12.61;100.00;100365.34;5052597;28;20029;-79
2022/10/21 02:38:04;;;;;;;42.70;18.30;;;;;;;12.66;100.00;100362.19;5062498;28;20064;-79
2022/10/21 02:40:36;;;;;;;51.83;19.55;;;;;;;12.67;100.00;100362.03;5044591;28;20021;-78
2022/10/21 02:43:08;;;;;;;40.22;18.65;;;;;;;12.54;100.00;100349.59;5045400;28;20089;-78
2022/10/21 02:45:33;;;;;;;41.20;19.23;;;;;;;12.61;100.00;100350.75;5054580;28;20040;-79
2022/10/21 02:47:59;;;;;;;37.78;18.23;;;;;;;12.62;100.00;100363.47;5061419;28;20029;-79
2022/10/21 02:50:24;;;;;;;42.78;18.23;;;;;;;12.49;100.00;100350.94;5030220;28;20453;-79
2022/10/21 02:52:50;;;;;;;42.80;19.58;;;;;;;12.61;100.00;100367.22;5041809;28;20032;-79
2022/10/21 02:55:15;;;;;;;41.67;19.25;;;;;;;12.59;100.00;100363.75;5032765;28;20397;-79
2022/10/21 02:57:41;;;;;;;41.53;19.58;;;;;;;12.59;100.00;100359.16;5014280;28;20029;-79
2022/10/21 03:00:07;;;;;;;42.80;17.77;;;;;;;12.44;100.00;100341.38;5029344;28;20071;-79
2022/10/21 03:02:33;;;;;;;39.55;18.40;;;;;;;12.49;100.00;100355.53;5047433;28;20055;-80
2022/10/21 03:04:58;;;;;;;45.00;19.63;;;;;;;12.46;100.00;100355.81;5044228;28;20477;-79
2022/10/21 03:07:23;;;;;;;41.92;18.80;;;;;;;12.26;100.00;100335.75;5036150;28;20122;-79
2022/10/21 03:09:52;;;;;;;39.80;18.98;;;;;;;12.36;100.00;100353.09;5045702;28;20043;-79
2022/10/21 03:12:17;;;;;;;38.75;18.55;;;;;;;12.02;100.00;100327.97;5028548;28;20032;-79
2022/10/21 03:14:43;;;;;;;39.22;18.38;;;;;;;11.99;100.00;100318.16;5030989;28;20037;-78
2022/10/21 03:17:08;;;;;;;38.33;19.05;;;;;;;12.09;100.00;100356.56;5028589;28;20115;-79
2022/10/21 03:19:34;;;;;;;42.92;19.60;;;;;;;12.03;100.00;100348.91;5028503;28;20041;-79
2022/10/21 03:21:59;;;;;;;43.67;18.67;;;;;;;11.97;100.00;100358.59;5028398;28;20033;-78
2022/10/21 03:24:25;;;;;;;44.13;19.58;;;;;;;11.82;100.00;100330.66;5044784;28;20064;-78
2022/10/21 03:26:50;;;;;;;49.97;20.65;;;;;;;12.08;100.00;100357.56;5040337;28;20032;-79
2022/10/21 03:29:15;;;;;;;46.58;19.80;;;;;;;11.94;100.00;100356.13;5054281;28;20066;-79
2022/10/21 03:31:41;;;;;;;51.70;20.63;;;;;;;11.82;100.00;100347.09;5028015;28;20489;-79
2022/10/21 03:34:06;;;;;;;57.55;20.52;;;;;;;11.98;100.00;100365.78;5059408;28;20107;-79
2022/10/21 03:36:32;;;;;;;54.08;21.10;;;;;;;11.97;100.00;100366.81;5043739;28;20037;-79
2022/10/21 03:38:57;;;;;;;49.08;20.95;;;;;;;11.89;100.00;100352.91;5049908;28;20061;-78
2022/10/21 03:41:23;;;;;;;50.47;21.35;;;;;;;11.80;100.00;100335.41;5056273;28;20033;-79
2022/10/21 03:43:48;;;;;;;48.58;19.70;;;;;;;11.71;100.00;100353.59;5059224;28;20029;-79
2022/10/21 03:46:14;;;;;;;45.55;18.88;;;;;;;11.81;100.00;100361.00;5052120;28;20089;-78
2022/10/21 03:48:39;;;;;;;53.88;21.52;;;;;;;11.72;100.00;100338.00;5025234;28;20135;-78
2022/10/21 03:51:05;;;;;;;47.55;22.00;;;;;;;11.86;100.00;100350.47;5041667;28;20044;-78
2022/10/21 03:53:30;;;;;;;47.33;21.33;;;;;;;11.88;100.00;100341.06;5040858;28;20047;-78
2022/10/21 03:55:56;;;;;;;45.10;19.67;;;;;;;11.85;100.00;100340.47;5022838;28;20486;-78
2022/10/21 03:58:21;;;;;;;48.00;20.33;;;;;;;11.97;100.00;100349.47;5044045;28;20040;-79
2022/10/21 04:00:51;;;;;;;51.65;20.77;;;;;;;11.99;100.00;100339.25;5042371;28;20047;-78
2022/10/21 04:03:16;;;;;;;52.22;20.92;;;;;;;11.84;100.00;100311.31;5041969;28;20033;-78
2022/10/21 04:05:43;;;;;;;48.65;19.73;;;;;;;11.95;100.00;100334.03;5045263;28;20086;-77
2022/10/21 04:08:08;;;;;;;47.72;18.95;;;;;;;11.77;100.00;100320.13;5006136;28;20021;-78
2022/10/21 04:10:34;;;;;;;38.38;19.10;;;;;;;11.76;100.00;100314.78;5025589;28;20040;-78
2022/10/21 04:13:00;;;;;;;37.85;18.33;;;;;;;11.79;100.00;100314.50;5025106;28;20041;-78
2022/10/21 04:15:26;;;;;;;52.38;19.33;;;;;;;11.74;100.00;100305.81;5038732;28;20029;-79
2022/10/21 04:17:51;;;;;;;44.65;19.17;;;;;;;11.71;100.00;100326.19;5023187;28;20506;-79
2022/10/21 04:20:17;;;;;;;49.97;19.88;;;;;;;11.71;100.00;100325.31;5022432;28;20436;-78
2022/10/21 04:22:42;;;;;;;43.85;19.95;;;;;;;11.78;100.00;100337.44;5024276;28;20038;-79
2022/10/21 04:25:08;;;;;;;50.15;20.85;;;;;;;11.78;100.00;100321.00;5042022;28;20053;-79
2022/10/21 04:27:34;;;;;;;46.92;19.38;;;;;;;11.89;100.00;100340.06;5065705;28;20067;-79
2022/10/21 04:30:01;;;;;;;45.08;19.02;;;;;;;11.83;100.00;100340.63;5016337;28;20124;-79
2022/10/21 04:32:26;;;;;;;44.05;18.05;;;;;;;11.72;100.00;100333.41;5060518;28;20040;-78
2022/10/21 04:34:52;;;;;;;40.83;17.63;;;;;;;11.78;100.00;100343.78;5044380;28;20037;-78
2022/10/21 04:37:18;;;;;;;41.42;18.48;;;;;;;11.77;100.00;100344.81;5069638;28;20101;-78
2022/10/21 04:39:46;;;;;;;41.92;18.13;;;;;;;11.74;100.00;100346.94;5048858;28;20041;-78
2022/10/21 04:42:11;;;;;;;41.05;17.63;;;;;;;11.83;100.00;100345.25;5048879;28;20091;-77
2022/10/21 04:44:40;;;;;;;42.15;18.25;;;;;;;11.71;100.00;100320.69;5031448;28;20037;-76
2022/10/21 04:47:07;;;;;;;38.38;17.98;;;;;;;11.78;100.00;100334.69;5069134;28;20021;-78
2022/10/21 04:49:32;;;;;;;43.10;18.00;;;;;;;11.77;100.00;100347.56;5052748;28;20082;-79
2022/10/21 04:52:00;;;;;;;42.92;17.65;;;;;;;11.82;100.00;100346.25;5034140;28;20044;-78
2022/10/21 04:54:25;;;;;;;42.88;17.17;;;;;;;11.72;100.00;100343.50;5029837;28;20052;-78
2022/10/21 04:56:51;;;;;;;40.85;17.52;;;;;;;11.78;100.00;100357.50;5025534;28;20033;-78
2022/10/21 04:59:17;;;;;;;40.65;17.40;;;;;;;11.83;100.00;100348.00;5057590;28;20039;-78
2022/10/21 05:01:43;;;;;;;31.58;17.05;;;;;;;11.78;100.00;100342.94;5065244;28;20484;-78
2022/10/21 05:04:08;;;;;;;40.22;18.50;;;;;;;11.67;100.00;100335.69;5012963;28;20044;-78
2022/10/21 05:06:34;;;;;;;38.55;16.35;;;;;;;11.70;100.00;100340.03;5025982;28;20079;-78
2022/10/21 05:08:59;;;;;;;38.17;16.40;;;;;;;11.68;100.00;100331.94;5042820;28;20120;-78
2022/10/21 05:11:25;;;;;;;52.25;18.80;;;;;;;11.75;100.00;100344.06;5021689;28;20045;-78
2022/10/21 05:13:51;;;;;;;33.78;17.50;;;;;;;11.64;100.00;100319.53;5054407;28;20040;-78
2022/10/21 05:16:16;;;;;;;37.20;17.33;;;;;;;11.73;100.00;100324.16;5058631;28;20098;-78
2022/10/21 05:18:43;;;;;;;41.85;16.73;;;;;;;11.74;100.00;100322.28;5042417;28;20053;-78
2022/10/21 05:21:09;;;;;;;41.63;16.90;;;;;;;11.75;100.00;100318.53;5061020;28;20025;-78
2022/10/21 05:23:34;;;;;;;34.80;17.23;;;;;;;11.66;100.00;100303.81;5040869;28;20056;-80
2022/10/21 05:26:00;;;;;;;40.10;16.25;;;;;;;11.70;100.00;100309.88;5058294;28;20025;-78
2022/10/21 05:28:26;;;;;;;36.22;15.93;;;;;;;11.58;100.00;100287.19;5058665;28;20420;-80
2022/10/21 05:30:52;;;;;;;31.73;16.25;;;;;;;11.61;100.00;100294.25;5045767;28;20871;-78
2022/10/21 05:33:18;;;;;;;34.72;15.85;;;;;;;11.54;100.00;100286.63;5041641;28;20053;-78
2022/10/21 05:35:54;;;;;;;34.47;15.35;;;;;;;11.58;100.00;100288.06;5039741;28;20050;-78
2022/10/21 05:38:20;;;;;;;39.28;16.30;;;;;;;11.57;100.00;100289.06;5034181;28;20120;-78
2022/10/21 05:40:48;;;;;;;39.15;16.23;;;;;;;11.48;100.00;100280.81;5037712;28;20049;-78
2022/10/21 05:43:14;;;;;;;34.08;15.52;;;;;;;11.37;100.00;100284.56;5054711;28;20037;-78
2022/10/21 05:45:40;;;;;;;33.25;14.57;;;;;;;11.44;100.00;100296.69;5042509;28;20067;-77
2022/10/21 05:48:07;;;;;;;33.00;15.50;;;;;;;11.48;100.00;100306.38;5042937;28;20040;-78
2022/10/21 05:50:33;;;;;;;35.20;14.10;;;;;;;11.39;100.00;100298.97;5048791;28;20116;-79
2022/10/21 05:53:00;;;;;;;41.38;15.55;;;;;;;11.25;100.00;100292.03;5046374;28;20538;-79
2022/10/21 05:55:25;;;;;;;41.42;16.27;;;;;;;11.26;100.00;100292.91;5040835;28;20420;-79
2022/10/21 05:57:50;;;;;;;29.70;13.98;;;;;;;11.20;100.00;100284.22;5051059;28;20029;-79
2022/10/21 06:00:16;;;;;;;37.78;14.85;;;;;;;11.26;100.00;100298.38;5038691;28;20044;-78
2022/10/21 06:02:42;;;;;;;33.38;15.93;;;;;;;11.17;100.00;100289.97;5040204;28;20033;-78
2022/10/21 06:05:07;;;;;;;31.48;15.13;;;;;;;11.15;100.00;100286.53;5050669;28;20112;-77
2022/10/21 06:07:33;;;;;;;24.88;13.73;;;;;;;11.12;100.00;100288.69;5024159;28;20127;-77
2022/10/21 06:09:59;;;;;;;36.75;15.10;;;;;;;11.24;100.00;100304.00;5007209;28;20045;-78
2022/10/21 06:12:25;;;;;;;35.22;16.38;;;;;;;11.19;100.00;100304.41;5057728;28;20041;-79
2022/10/21 06:14:50;;;;;;;60.33;31.13;;;;;;;11.14;100.00;100293.00;5043351;28;20045;-79
2022/10/21 06:17:16;;;;;;;72.57;35.67;;;;;;;11.13;100.00;100295.88;5025098;28;20076;-79
2022/10/21 06:19:41;;;;;;;61.13;29.08;;;;;;;11.20;100.00;100291.59;5044333;28;20400;-80
2022/10/21 06:22:07;;;;;;;70.10;32.10;;;;;;;11.25;100.00;100299.38;5029258;28;20104;-81
2022/10/21 06:24:33;;;;;;;40.35;16.67;;;;;;;11.17;100.00;100294.59;5027369;28;20522;-77
2022/10/21 06:26:58;;;;;;;31.08;16.45;;;;;;;11.19;100.00;100304.41;5039489;28;20545;-78
2022/10/21 06:29:24;;;;;;;29.63;14.82;;;;;;;11.08;100.00;100296.28;5038586;28;20060;-78
2022/10/21 06:31:49;;;;;;;32.95;15.25;;;;;;;11.05;100.00;100293.81;5057248;28;20167;-78
2022/10/21 06:34:15;;;;;;;29.92;14.48;;;;;;;11.18;100.00;100304.53;5040749;28;20404;-77
2022/10/21 06:36:40;;;;;;;30.80;13.13;;;;;;;11.20;100.00;100308.03;5058427;28;20033;-78
2022/10/21 06:39:07;;;;;;;36.85;14.65;;;;;;;11.22;100.00;100316.97;5041961;28;20174;-78
2022/10/21 06:41:35;;;;;;;33.25;14.70;;;;;;;11.17;100.00;100322.00;5055815;28;20034;-80
2022/10/21 06:44:03;;;;;;;44.10;15.82;;;;;;;11.24;100.00;100306.72;5054449;28;20037;-81
2022/10/21 06:46:28;;;;;;;35.20;15.82;;;;;;;11.21;100.00;100305.16;5008575;28;20037;-78
2022/10/21 06:48:54;;;;;;;28.00;15.77;;;;;;;11.42;100.00;100320.63;5021111;28;20032;-78
2022/10/21 06:51:23;;;;;;;41.72;17.92;;;;;;;11.54;100.00;100329.59;5024348;28;20481;-78
2022/10/21 06:53:54;;;;;;;22.65;13.70;;;;;;;11.51;100.00;100319.81;5056883;28;20488;-79
2022/10/21 06:56:20;;;;;;;38.80;16.60;;;;;;;11.66;100.00;100344.06;5071804;28;20112;-79
2022/10/21 06:58:48;;;;;;;40.65;17.00;;;;;;;11.60;100.00;100320.81;5060111;28;20036;-79
2022/10/21 07:01:22;;;;;;;34.85;14.45;;;;;;;11.83;100.00;100345.25;5027340;28;20032;-79
2022/10/21 07:03:49;;;;;;;32.17;13.40;;;;;;;11.93;100.00;100347.00;5044531;28;20393;-80
2022/10/21 07:06:15;;;;;;;26.60;12.55;;;;;;;11.90;100.00;100335.44;5060472;28;20074;-80
2022/10/21 07:08:41;;;;;;;23.42;12.77;;;;;;;11.99;100.00;100356.56;5047015;28;20029;-80
2022/10/21 07:11:07;;;;;;;25.35;12.38;;;;;;;11.99;100.00;100361.19;5046310;28;20448;-79
2022/10/21 07:13:34;;;;;;;27.67;13.45;;;;;;;11.95;100.00;100372.44;5064885;28;20052;-79
2022/10/21 07:16:06;;;;;;;29.38;13.48;;;;;;;12.01;100.00;100373.75;5060516;28;20029;-79
2022/10/21 07:18:34;;;;;;;21.08;12.35;;;;;;;12.06;100.00;100389.78;5043037;28;20029;-79
2022/10/21 07:21:05;;;;;;;26.00;11.43;;;;;;;12.13;100.00;100378.09;5055908;28;20041;-79
2022/10/21 07:23:31;;;;;;;45.00;11.05;;;;;;;12.18;100.00;100374.91;5058800;28;20048;-79
2022/10/21 07:25:56;;;;;;;28.00;11.98;;;;;;;12.05;100.00;100349.63;5059233;28;20115;-79
2022/10/21 07:28:22;;;;;;;20.67;10.77;;;;;;;12.16;100.00;100363.22;5042705;28;20033;-79
2022/10/21 07:30:48;;;;;;;17.00;10.15;;;;;;;12.27;100.00;100368.56;5038948;28;20037;-79
2022/10/21 07:33:13;;;;;;;21.42;10.90;;;;;;;12.34;100.00;100376.22;5040185;28;20037;-79
2022/10/21 07:35:39;;;;;;;22.88;10.70;;;;;;;12.33;100.00;100353.41;5042562;28;20097;-79
2022/10/21 07:38:05;;;;;;;23.55;11.80;;;;;;;12.32;100.00;100352.50;5059695;28;20088;-79
2022/10/21 07:40:30;;;;;;;20.88;10.70;;;;;;;12.38;100.00;100362.06;5040660;28;20044;-79
2022/10/21 07:42:57;;;;;;;21.20;12.30;;;;;;;12.48;100.00;100356.56;5026907;28;20053;-79
2022/10/21 07:45:22;;;;;;;23.20;12.10;;;;;;;12.52;100.00;100362.63;5053345;28;20461;-79
2022/10/21 07:47:49;;;;;;;24.17;12.95;;;;;;;12.57;100.00;100361.16;5038998;28;20124;-79
2022/10/21 07:50:15;;;;;;;31.27;14.73;;;;;;;12.49;100.00;100350.03;5059599;28;20096;-79
2022/10/21 07:52:44;;;;;;;24.23;12.93;;;;;;;12.57;100.00;100352.06;5058779;28;20025;-79
2022/10/21 07:55:15;;;;;;;26.63;12.77;;;;;;;12.65;100.00;100365.94;5023697;28;20037;-79
2022/10/21 07:57:43;;;;;;;28.58;13.20;;;;;;;12.76;100.00;100376.75;5042705;28;20041;-79
2022/10/21 08:00:10;;;;;;;26.35;12.70;;;;;;;12.75;100.00;100369.50;5057803;28;20139;-79
2022/10/21 08:02:36;;;;;;;28.15;13.25;;;;;;;12.78;100.00;100363.72;5063319;28;20040;-79
2022/10/21 08:05:02;;;;;;;27.55;13.38;;;;;;;12.79;100.00;100348.09;5046758;28;20385;-79
2022/10/21 08:07:30;;;;;;;36.28;13.90;;;;;;;12.91;100.00;100374.41;5030955;28;20029;-79
2022/10/21 08:09:56;;;;;;;34.05;14.68;;;;;;;12.88;100.00;100367.31;5046698;28;20496;-79
2022/10/21 08:12:22;;;;;;;29.27;14.93;;;;;;;12.87;100.00;100365.59;5046879;28;20040;-79
2022/10/21 08:14:49;;;;;;;29.02;16.35;;;;;;;12.88;100.00;100367.31;5063526;28;20043;-79
2022/10/21 08:17:14;;;;;;;31.23;17.02;;;;;;;13.06;100.00;100385.78;5047026;28;20060;-79
2022/10/21 08:19:40;;;;;;;32.30;18.38;;;;;;;13.14;100.00;100396.03;5047008;28;20064;-79
2022/10/21 08:22:05;;;;;;;26.63;17.02;;;;;;;13.19;100.00;100379.97;5045505;28;20025;-79
2022/10/21 08:24:31;;;;;;;26.40;14.10;;;;;;;13.27;100.00;100377.31;5031450;28;20094;-79
2022/10/21 08:26:57;;;;;;;27.90;12.20;;;;;;;13.32;100.00;100375.00;5045732;28;20028;-79
2022/10/21 08:29:22;;;;;;;26.95;12.98;;;;;;;13.21;100.00;100359.53;5028705;28;20025;-79
2022/10/21 08:31:48;;;;;;;26.38;12.13;;;;;;;13.37;100.00;100377.31;5061994;28;20033;-79
2022/10/21 08:34:13;;;;;;;26.95;11.35;;;;;;;13.38;100.00;100368.91;5064230;28;20036;-79
2022/10/21 08:36:40;;;;;;;25.98;11.07;;;;;;;13.39;100.00;100381.63;5012607;28;20037;-79
2022/10/21 08:39:06;;;;;;;29.17;10.32;;;;;;;13.49;100.00;100388.97;5061128;28;20033;-79
2022/10/21 08:41:46;;;;;;;22.50;9.43;;;;;;;13.48;100.00;100388.13;5045767;28;20112;-79
2022/10/21 08:44:43;;;;;;;21.42;9.20;;;;;;;13.40;100.00;100388.88;5061202;28;20039;-79
2022/10/21 08:47:35;;;;;;;17.92;10.25;;;;;;;13.37;100.00;100382.81;5061632;28;20021;-79
2022/10/21 08:50:14;;;;;;;32.13;9.60;;;;;;;13.41;100.00;100403.47;5061237;28;20036;-79
2022/10/21 08:52:48;;;;;;;22.52;9.77;;;;;;;13.45;100.00;100402.16;5061272;28;20806;-79
2022/10/21 08:55:18;;;;;;;17.58;10.55;;;;;;;13.47;100.00;100408.38;5059628;28;20044;-79
2022/10/21 08:57:46;;;;;;;25.23;10.15;;;;;;;13.45;100.00;100399.41;5061631;28;20049;-79
2022/10/21 09:00:15;;;;;;;21.45;11.13;;;;;;;13.44;100.00;100394.94;5048625;28;20060;-78
2022/10/21 09:03:03;;;;;;;36.78;12.40;;;;;;;13.44;100.00;100396.81;5065459;28;20044;-80
2022/10/21 09:05:56;;;;;;;28.45;13.13;;;;;;;13.40;100.00;100380.63;5040590;28;20028;-80
2022/10/21 09:08:51;;;;;;;22.60;11.63;;;;;;;13.52;100.00;100399.69;5065272;28;20021;-80
2022/10/21 09:11:57;;;;;;;31.98;12.45;;;;;;;13.57;100.00;100389.94;5062506;28;20499;-80
2022/10/21 09:14:53;;;;;;;33.95;13.70;;;;;;;13.64;100.00;100395.69;5063465;28;20488;-80
2022/10/21 09:17:31;;;;;;;35.13;12.77;;;;;;;13.63;100.00;100407.72;5059970;28;20062;-80
2022/10/21 09:20:15;;;;;;;31.38;13.38;;;;;;;13.66;100.00;100410.19;5060204;28;20037;-79
2022/10/21 09:23:10;;;;;;;25.13;13.30;;;;;;;13.73;100.00;100418.69;5060728;28;20349;-80
2022/10/21 09:25:48;;;;;;;29.13;14.57;;;;;;;13.79;100.00;100424.44;5036891;28;20168;-79
2022/10/21 09:28:14;;;;;;;35.50;14.48;;;;;;;13.84;100.00;100428.59;5037390;28;20416;-79
2022/10/21 09:30:43;;;;;;;42.58;14.98;;;;;;;13.86;100.00;100415.59;5050426;28;20052;-79
2022/10/21 09:33:30;;;;;;;33.58;13.60;;;;;;;13.91;100.00;100427.84;5041269;28;20032;-79
2022/10/21 09:36:05;;;;;;;33.15;14.07;;;;;;;13.97;100.00;100426.38;5040318;28;20026;-79
2022/10/21 09:38:45;;;;;;;34.08;15.20;;;;;;;14.05;100.00;100422.84;5039720;28;20033;-79
2022/10/21 09:41:16;;;;;;;30.83;13.52;;;;;;;14.12;100.00;100423.97;5040442;28;20499;-80
2022/10/21 09:43:43;;;;;;;30.60;14.00;;;;;;;14.20;100.00;100425.91;5050744;28;20431;-79
2022/10/21 09:46:12;;;;;;;30.58;14.20;;;;;;;14.27;100.00;100427.06;5040576;28;20025;-79
2022/10/21 09:48:38;;;;;;;27.55;13.98;;;;;;;14.39;100.00;100419.41;5058431;28;20120;-80
2022/10/21 09:51:09;;;;;;;30.35;14.40;;;;;;;14.43;100.00;100435.47;5058296;28;20056;-80
2022/10/21 09:53:46;;;;;;;26.23;12.20;;;;;;;14.47;100.00;100428.59;5059780;28;20062;-80
2022/10/21 09:56:18;;;;;;;25.60;11.95;;;;;;;14.56;100.00;100432.34;5059652;28;20123;-79
2022/10/21 09:59:11;;;;;;;23.17;12.57;;;;;;;14.60;100.00;100428.25;5038597;28;20052;-80
2022/10/21 10:01:38;;;;;;;31.48;13.18;;;;;;;14.70;100.00;100431.78;5040126;28;20099;-79
2022/10/21 10:04:28;;;;;;;19.75;12.23;;;;;;;14.73;100.00;100432.50;5040674;28;20025;-80
2022/10/21 10:06:54;;;;;;;27.13;12.20;;;;;;;14.79;100.00;100432.72;5026683;28;20033;-80
2022/10/21 10:09:26;;;;;;;29.90;12.75;;;;;;;14.82;100.00;100439.81;5055388;28;20124;-80
2022/10/21 10:12:25;;;;;;;20.77;11.73;;;;;;;14.91;100.00;100443.50;5054675;28;20068;-80
2022/10/21 10:14:50;;;;;;;31.02;13.40;;;;;;;14.97;100.00;100443.72;5042768;28;20105;-80
2022/10/21 10:17:37;;;;;;;27.10;12.57;;;;;;;14.97;100.00;100440.97;5054919;28;20123;-79
2022/10/21 10:20:02;;;;;;;27.50;12.20;;;;;;;15.01;100.00;100445.13;5042586;28;20033;-79
2022/10/21 10:22:34;;;;;;;22.55;10.85;;;;;;;15.05;100.00;100441.03;5059382;28;20127;-80
2022/10/21 10:25:23;;;;;;;17.77;9.93;;;;;;;15.11;100.00;100444.16;5059258;28;20072;-79
2022/10/21 10:27:58;;;;;;;22.02;10.10;;;;;;;15.17;100.00;100451.81;5041739;28;20029;-80
2022/10/21 10:30:40;;;;;;;22.48;9.40;;;;;;;15.22;100.00;100452.19;5057443;28;20024;-80
2022/10/21 10:33:15;;;;;;;23.98;8.98;;;;;;;15.27;100.00;100455.31;5057467;28;20089;-79
2022/10/21 10:36:07;;;;;;;22.60;8.80;;;;;;;15.37;100.00;100456.06;5058842;28;20400;-80
2022/10/21 10:38:36;;;;;;;23.15;9.60;;;;;;;15.42;100.00;100455.59;5040586;28;20052;-79
2022/10/21 10:41:11;;;;;;;19.55;9.50;;;;;;;15.46;100.00;100451.44;5058374;28;20076;-79
2022/10/21 10:43:45;;;;;;;24.90;10.32;;;;;;;15.53;100.00;100460.81;5059510;28;20453;-79
2022/10/21 10:46:21;;;;;;;18.92;8.40;;;;;;;15.69;100.00;100456.41;5059518;28;20033;-78
2022/10/21 10:48:50;;;;;;;21.05;8.65;;;;;;;15.71;100.00;100454.34;5059249;28;20103;-78
2022/10/21 10:51:31;;;;;;;12.90;7.70;;;;;;;15.74;100.00;100451.25;5041244;28;20090;-79
2022/10/21 10:54:06;;;;;;;19.55;8.20;;;;;;;15.85;100.00;100451.00;5041469;28;20029;-79
2022/10/21 10:56:43;;;;;;;15.95;7.03;;;;;;;15.90;100.00;100448.59;5056968;28;20037;-78
2022/10/21 10:59:26;;;;;;;17.42;5.82;;;;;;;15.95;100.00;100446.22;5056619;28;20123;-78
2022/10/21 11:02:15;;;;;;;15.48;5.72;;;;;;;15.99;100.00;100458.66;5058069;28;20032;-79
2022/10/21 11:04:45;;;;;;;14.05;5.47;;;;;;;16.05;100.00;100451.59;5059322;28;20117;-79
2022/10/21 11:07:24;;;;;;;12.43;4.20;;;;;;;15.99;100.00;100455.03;5041714;28;20024;-79
2022/10/21 11:09:53;;;;;;;11.20;3.97;;;;;;;15.99;100.00;100442.09;5059398;28;20104;-79
2022/10/21 11:12:25;;;;;;;10.55;4.75;;;;;;;16.06;100.00;100441.44;5042281;28;20052;-80
2022/10/21 11:14:53;;;;;;;11.40;4.40;;;;;;;16.15;100.00;100434.88;5054674;28;20087;-80